createdAt,value
2018-05-06T00:01:58.614Z,43.20
2018-05-06T00:04:47.607Z,41.90
2018-05-06T00:07:27.536Z,42.30
2018-05-06T00:10:02.333Z,42.60
2018-05-06T00:12:34.308Z,43.00
2018-05-06T00:15:05.376Z,43.20
2018-05-06T00:17:35.186Z,43.30
2018-05-06T00:20:05.192Z,43.30
2018-05-06T00:22:35.363Z,43.70
2018-05-06T00:25:06.731Z,44.00
2018-05-06T00:27:43.477Z,44.00
2018-05-06T00:30:33.849Z,44.30
2018-05-06T00:33:03.761Z,44.50
2018-05-06T00:35:45.626Z,44.70
2018-05-06T00:38:17.184Z,44.90
2018-05-06T00:40:53.014Z,45.30
2018-05-06T00:43:27.304Z,45.60
2018-05-06T00:45:58.225Z,45.90
2018-05-06T00:48:28.299Z,46.10
2018-05-06T00:50:58.756Z,46.50
2018-05-06T00:53:37.073Z,47.10
2018-05-06T00:56:06.937Z,47.10
2018-05-06T00:58:36.876Z,47.40
2018-05-06T01:01:07.328Z,47.70
2018-05-06T01:03:37.853Z,47.70
2018-05-06T01:06:07.451Z,47.80
2018-05-06T01:08:38.400Z,48.70
2018-05-06T01:11:09.529Z,48.80
2018-05-06T01:13:44.172Z,49.10
2018-05-06T01:16:15.296Z,49.10
2018-05-06T01:18:45.495Z,50.50
2018-05-06T01:21:15.627Z,50.50
2018-05-06T01:23:59.792Z,50.60
2018-05-06T01:26:52.954Z,50.90
2018-05-06T01:29:23.701Z,51.60
2018-05-06T01:31:53.475Z,51.60
2018-05-06T01:34:22.616Z,52.00
2018-05-06T01:36:51.667Z,52.20
2018-05-06T01:39:23.737Z,52.60
2018-05-06T01:41:54.453Z,52.90
2018-05-06T01:44:24.425Z,53.30
2018-05-06T01:46:54.667Z,53.70
2018-05-06T01:49:23.768Z,53.60
2018-05-06T01:51:54.298Z,54.20
2018-05-06T01:54:24.461Z,54.60
2018-05-06T01:56:54.314Z,54.60
2018-05-06T01:59:23.844Z,55.30
2018-05-06T02:01:57.359Z,55.20
2018-05-06T02:04:38.455Z,55.60
2018-05-06T02:07:11.422Z,56.20
2018-05-06T02:09:40.654Z,56.20
2018-05-06T02:12:11.163Z,56.90
2018-05-06T02:14:40.771Z,56.90
2018-05-06T02:17:11.809Z,56.60
2018-05-06T02:19:45.075Z,57.50
2018-05-06T02:22:16.775Z,57.50
2018-05-06T02:31:32.855Z,58.40
2018-05-06T02:34:02.179Z,59.00
2018-05-06T02:36:32.624Z,59.60
2018-05-06T02:39:04.604Z,59.80
2018-05-06T02:41:34.270Z,60.20
2018-05-06T02:44:03.714Z,61.20
2018-05-06T02:46:33.979Z,61.10
2018-05-06T02:49:03.158Z,61.00
2018-05-06T02:51:33.202Z,62.50
2018-05-06T02:54:02.872Z,62.50
2018-05-06T02:56:32.211Z,62.40
2018-05-06T02:59:01.498Z,62.50
2018-05-06T03:01:31.378Z,62.70
2018-05-06T03:04:01.431Z,63.20
2018-05-06T03:06:30.695Z,63.20
2018-05-06T03:09:00.362Z,63.50
2018-05-06T03:11:33.470Z,63.40
2018-05-06T03:14:02.735Z,63.50
2018-05-06T03:16:32.553Z,63.70
2018-05-06T03:19:09.277Z,64.10
2018-05-06T03:21:38.473Z,64.20
2018-05-06T03:24:07.947Z,64.80
2018-05-06T03:26:36.999Z,64.90
2018-05-06T03:29:06.952Z,65.80
2018-05-06T03:31:36.197Z,65.80
2018-05-06T03:34:05.154Z,66.10
2018-05-06T03:36:34.536Z,65.80
2018-05-06T03:39:19.707Z,66.10
2018-05-06T03:42:01.247Z,65.80
2018-05-06T03:44:30.996Z,66.40
2018-05-06T03:47:00.016Z,66.90
2018-05-06T03:49:29.037Z,67.20
2018-05-06T03:51:58.019Z,67.00
2018-05-06T03:54:27.023Z,66.50
2018-05-06T03:59:12.203Z,66.70
2018-05-06T04:01:41.568Z,66.80
2018-05-06T04:04:10.866Z,66.40
2018-05-06T04:06:39.834Z,66.70
2018-05-06T04:09:10.454Z,66.50
2018-05-06T04:11:40.443Z,66.70
2018-05-06T04:14:09.446Z,66.40
2018-05-06T04:16:38.460Z,66.10
2018-05-06T04:19:08.364Z,65.30
2018-05-06T04:21:37.911Z,65.30
2018-05-06T04:24:07.164Z,64.50
2018-05-06T04:26:37.001Z,64.50
2018-05-06T04:29:07.174Z,64.10
2018-05-06T04:31:36.266Z,64.10
2018-05-06T04:34:05.910Z,63.30
2018-05-06T04:36:36.642Z,63.60
2018-05-06T04:39:06.503Z,62.80
2018-05-06T04:41:35.942Z,62.90
2018-05-06T04:44:05.539Z,62.40
2018-05-06T04:46:34.787Z,62.50
2018-05-06T04:49:05.103Z,63.00
2018-05-06T04:51:35.298Z,63.10
2018-05-06T04:54:04.469Z,63.10
2018-05-06T04:56:33.646Z,62.80
2018-05-06T04:59:02.819Z,63.30
2018-05-06T05:01:33.122Z,64.40
2018-05-06T05:04:02.728Z,64.30
2018-05-06T05:06:32.071Z,64.70
2018-05-06T05:09:01.435Z,65.10
2018-05-06T05:11:30.541Z,64.70
2018-05-06T05:13:59.689Z,63.60
2018-05-06T05:16:29.039Z,63.60
2018-05-06T05:18:59.108Z,63.80
2018-05-06T05:21:28.700Z,64.60
2018-05-06T05:23:58.656Z,65.40
2018-05-06T05:26:27.810Z,65.50
2018-05-06T05:28:57.683Z,65.80
2018-05-06T05:31:26.913Z,65.70
2018-05-06T05:33:57.012Z,64.10
2018-05-06T05:36:25.940Z,64.10
2018-05-06T05:38:55.047Z,64.50
2018-05-06T05:41:24.180Z,63.70
2018-05-06T05:43:53.365Z,64.40
2018-05-06T05:46:22.491Z,64.10
2018-05-06T05:48:52.225Z,63.70
2018-05-06T05:51:21.475Z,63.10
2018-05-06T05:53:50.909Z,63.20
2018-05-06T05:56:20.780Z,60.40
2018-05-06T05:58:50.279Z,60.40
2018-05-06T06:01:19.420Z,55.00
2018-05-06T06:03:48.515Z,49.30
2018-05-06T06:06:17.573Z,47.70
2018-05-06T06:08:46.559Z,47.30
2018-05-06T06:11:15.553Z,45.40
2018-05-06T06:13:44.497Z,44.60
2018-05-06T06:16:14.241Z,43.10
2018-05-06T06:18:43.677Z,42.30
2018-05-06T06:21:12.694Z,41.20
2018-05-06T06:23:42.464Z,40.40
2018-05-06T06:26:11.615Z,40.30
2018-05-06T06:30:10.032Z,39.60
2018-05-06T06:32:39.550Z,38.80
2018-05-06T06:35:08.623Z,36.40
2018-05-06T06:37:37.814Z,36.80
2018-05-06T06:40:08.131Z,34.10
2018-05-06T06:42:38.039Z,33.00
2018-05-06T06:45:07.848Z,33.50
2018-05-06T06:47:37.740Z,33.20
2018-05-06T06:50:06.786Z,33.10
2018-05-06T06:52:35.728Z,33.70
2018-05-06T06:55:05.776Z,32.80
2018-05-06T06:57:35.747Z,31.90
2018-05-06T07:00:05.818Z,31.90
2018-05-06T07:02:35.720Z,32.00
2018-05-06T07:05:05.663Z,31.50
2018-05-06T07:07:35.131Z,31.50
2018-05-06T07:10:05.047Z,29.80
2018-05-06T07:12:34.561Z,29.80
2018-05-06T07:15:05.709Z,29.90
2018-05-06T07:17:35.096Z,29.90
2018-05-06T07:20:04.553Z,29.50
2018-05-06T07:22:34.143Z,30.00
2018-05-06T07:25:03.301Z,30.70
2018-05-06T07:27:33.456Z,31.70
2018-05-06T07:30:03.442Z,31.80
2018-05-06T07:32:32.725Z,30.00
2018-05-06T07:35:02.863Z,29.80
2018-05-06T07:37:32.260Z,29.80
2018-05-06T07:40:02.090Z,29.00
2018-05-06T07:42:32.030Z,28.30
2018-05-06T07:45:02.432Z,28.30
2018-05-06T07:47:31.780Z,28.40
2018-05-06T07:50:01.607Z,27.90
2018-05-06T07:52:31.417Z,27.90
2018-05-06T07:55:00.432Z,27.50
2018-05-06T07:57:33.923Z,27.10
2018-05-06T08:00:03.220Z,27.10
2018-05-06T08:02:33.451Z,27.50
2018-05-06T08:05:02.960Z,28.90
2018-05-06T08:07:34.850Z,28.00
2018-05-06T08:10:06.231Z,27.40
2018-05-06T08:12:41.745Z,27.40
2018-05-06T08:15:13.205Z,28.10
2018-05-06T08:17:43.050Z,28.10
2018-05-06T08:20:12.147Z,27.20
2018-05-06T08:22:41.855Z,26.70
2018-05-06T08:25:11.736Z,25.90
2018-05-06T08:27:43.406Z,25.10
2018-05-06T08:30:14.381Z,25.10
2018-05-06T08:32:43.881Z,25.10
2018-05-06T08:35:14.177Z,24.90
2018-05-06T08:37:44.191Z,24.20
2018-05-06T08:40:13.370Z,23.30
2018-05-06T08:42:43.791Z,23.40
2018-05-06T08:45:19.669Z,23.20
2018-05-06T08:47:49.447Z,23.20
2018-05-06T08:50:18.444Z,22.60
2018-05-06T08:52:47.530Z,22.50
2018-05-06T08:55:17.082Z,22.30
2018-05-06T08:57:46.843Z,21.90
2018-05-06T09:00:16.077Z,21.50
2018-05-06T09:02:45.492Z,21.20
2018-05-06T09:05:16.088Z,21.10
2018-05-06T09:07:45.401Z,20.10
2018-05-06T09:10:15.240Z,19.60
2018-05-06T09:12:44.361Z,19.50
2018-05-06T09:15:13.370Z,19.90
2018-05-06T09:17:42.334Z,19.40
2018-05-06T09:20:11.972Z,19.10
2018-05-06T09:22:41.396Z,19.00
2018-05-06T09:25:11.412Z,19.10
2018-05-06T09:27:40.714Z,19.10
2018-05-06T09:30:10.265Z,19.70
2018-05-06T09:32:39.470Z,19.20
2018-05-06T09:35:09.825Z,18.10
2018-05-06T09:37:41.095Z,18.10
2018-05-06T09:40:11.148Z,17.90
2018-05-06T09:42:40.343Z,17.00
2018-05-06T09:45:09.488Z,16.80
2018-05-06T09:47:38.575Z,17.30
2018-05-06T09:50:07.642Z,16.70
2018-05-06T09:52:39.063Z,15.90
2018-05-06T09:55:08.399Z,15.80
2018-05-06T09:57:44.681Z,15.70
2018-05-06T10:00:15.654Z,16.10
2018-05-06T10:02:45.773Z,16.50
2018-05-06T10:05:16.673Z,16.00
2018-05-06T10:07:46.280Z,16.00
2018-05-06T10:10:16.665Z,15.50
2018-05-06T10:12:55.050Z,14.80
2018-05-06T10:15:25.244Z,14.10
2018-05-06T10:17:58.022Z,14.10
2018-05-06T10:20:31.890Z,15.20
2018-05-06T10:23:03.200Z,15.30
2018-05-06T10:25:32.843Z,15.30
2018-05-06T10:28:02.935Z,15.70
2018-05-06T10:30:32.160Z,15.70
2018-05-06T10:33:02.741Z,16.90
2018-05-06T10:35:33.522Z,16.80
2018-05-06T10:38:04.484Z,15.50
2018-05-06T10:40:34.375Z,15.40
2018-05-06T10:43:04.370Z,15.20
2018-05-06T10:45:33.592Z,15.10
2018-05-06T10:48:30.051Z,14.90
2018-05-06T10:51:11.628Z,14.50
2018-05-06T10:53:41.798Z,14.40
2018-05-06T10:56:11.373Z,14.60
2018-05-06T10:58:41.713Z,15.10
2018-05-06T11:01:11.039Z,15.00
2018-05-06T11:03:44.364Z,14.90
2018-05-06T11:06:13.922Z,14.90
2018-05-06T11:08:43.850Z,15.10
2018-05-06T11:11:16.820Z,14.60
2018-05-06T11:13:47.479Z,14.60
2018-05-06T11:16:18.049Z,14.20
2018-05-06T11:18:48.153Z,14.40
2018-05-06T11:21:18.100Z,14.50
2018-05-06T11:23:55.357Z,15.00
2018-05-06T11:26:26.494Z,14.80
2018-05-06T11:28:58.884Z,14.80
2018-05-06T11:31:28.999Z,15.00
2018-05-06T11:33:59.520Z,14.80
2018-05-06T11:36:32.215Z,14.80
2018-05-06T11:39:02.069Z,14.80
2018-05-06T11:41:31.590Z,15.40
2018-05-06T11:44:00.880Z,15.40
2018-05-06T11:46:30.077Z,15.60
2018-05-06T11:48:59.415Z,15.80
2018-05-06T11:51:29.129Z,15.60
2018-05-06T11:53:59.611Z,15.20
2018-05-06T11:56:28.959Z,15.20
2018-05-06T11:58:59.199Z,15.60
2018-05-06T12:01:29.206Z,16.00
2018-05-06T12:04:01.832Z,15.60
2018-05-06T12:06:31.138Z,15.50
2018-05-06T12:09:02.876Z,14.90
2018-05-06T12:11:32.769Z,14.70
2018-05-06T12:14:02.177Z,14.60
2018-05-06T12:16:31.517Z,14.10
2018-05-06T12:19:00.959Z,14.20
2018-05-06T12:21:31.610Z,14.60
2018-05-06T12:24:01.527Z,14.50
2018-05-06T12:26:39.231Z,15.20
2018-05-06T12:29:24.517Z,14.90
2018-05-06T12:31:57.390Z,14.90
2018-05-06T12:34:42.185Z,14.50
2018-05-06T12:37:20.762Z,15.00
2018-05-06T12:39:50.547Z,15.00
2018-05-06T12:42:22.069Z,14.70
2018-05-06T12:44:54.593Z,14.70
2018-05-06T12:47:25.634Z,15.30
2018-05-06T12:49:56.932Z,14.90
2018-05-06T12:52:27.680Z,14.40
2018-05-06T12:54:57.177Z,14.30
2018-05-06T12:57:26.842Z,14.60
2018-05-06T12:59:57.944Z,14.80
2018-05-06T13:02:31.468Z,15.10
2018-05-06T13:05:01.884Z,14.70
2018-05-06T13:07:32.464Z,14.10
2018-05-06T13:10:01.627Z,14.10
2018-05-06T13:12:31.342Z,14.20
2018-05-06T13:15:01.488Z,14.30
2018-05-06T13:17:31.166Z,14.20
2018-05-06T13:20:01.787Z,14.40
2018-05-06T13:22:35.751Z,14.70
2018-05-06T13:25:12.394Z,14.70
2018-05-06T13:27:45.146Z,16.20
2018-05-06T13:30:18.927Z,16.50
2018-05-06T13:33:06.277Z,16.50
2018-05-06T13:35:51.189Z,16.30
2018-05-06T13:38:24.216Z,15.60
2018-05-06T13:40:59.963Z,15.60
2018-05-06T13:43:37.318Z,17.60
2018-05-06T13:46:12.995Z,18.20
2018-05-06T13:48:47.646Z,18.10
2018-05-06T13:51:20.767Z,19.00
2018-05-06T13:53:50.257Z,19.80
2018-05-06T13:56:24.783Z,19.90
2018-05-06T13:58:56.368Z,20.10
2018-05-06T14:01:32.899Z,20.10
2018-05-06T14:04:03.617Z,20.30
2018-05-06T14:06:33.943Z,20.40
2018-05-06T14:09:04.931Z,20.60
2018-05-06T14:11:34.786Z,20.90
2018-05-06T14:14:04.190Z,21.10
2018-05-06T14:16:35.096Z,21.40
2018-05-06T14:19:06.094Z,21.50
2018-05-06T14:21:35.948Z,21.50
2018-05-06T14:24:05.396Z,21.30
2018-05-06T14:26:38.261Z,21.40
2018-05-06T14:29:09.662Z,21.90
2018-05-06T14:31:39.523Z,22.00
2018-05-06T14:34:10.409Z,21.80
2018-05-06T14:36:40.529Z,21.60
2018-05-06T14:39:10.373Z,21.70
2018-05-06T14:41:46.460Z,21.20
2018-05-06T14:44:17.730Z,21.10
2018-05-06T14:49:01.760Z,21.10
2018-05-06T14:51:54.216Z,21.40
2018-05-06T14:54:32.055Z,22.40
2018-05-06T14:57:05.818Z,21.90
2018-05-06T14:59:38.622Z,22.80
2018-05-06T15:02:08.269Z,22.40
2018-05-06T15:04:37.530Z,22.70
2018-05-06T15:07:08.438Z,22.30
2018-05-06T15:09:37.659Z,22.40
2018-05-06T15:12:16.031Z,22.70
2018-05-06T15:14:56.177Z,22.60
2018-05-06T15:17:27.633Z,22.30
2018-05-06T15:21:28.483Z,22.50
2018-05-06T15:24:14.050Z,22.60
2018-05-06T15:26:50.626Z,22.60
2018-05-06T15:29:32.089Z,22.40
2018-05-06T15:32:10.349Z,22.40
2018-05-06T15:34:50.232Z,22.30
2018-05-06T15:37:35.053Z,22.40
2018-05-06T15:40:16.355Z,22.40
2018-05-06T15:42:58.359Z,22.10
2018-05-06T15:45:30.337Z,22.40
2018-05-06T15:48:00.545Z,22.60
2018-05-06T15:50:36.741Z,22.30
2018-05-06T15:53:06.459Z,22.30
2018-05-06T15:55:37.426Z,22.40
2018-05-06T15:58:09.402Z,22.40
2018-05-06T16:00:40.309Z,22.60
2018-05-06T16:03:20.506Z,22.70
2018-05-06T16:05:53.226Z,23.10
2018-05-06T16:08:23.569Z,23.00
2018-05-06T16:10:53.015Z,23.00
2018-05-06T16:13:26.628Z,23.10
2018-05-06T16:16:02.396Z,23.00
2018-05-06T16:18:32.149Z,22.80
2018-05-06T16:21:02.030Z,22.70
2018-05-06T16:23:39.325Z,22.70
2018-05-06T16:26:09.885Z,22.80
2018-05-06T16:28:39.690Z,23.20
2018-05-06T16:31:13.154Z,23.10
2018-05-06T16:33:42.915Z,23.00
2018-05-06T16:36:12.609Z,23.30
2018-05-06T16:38:42.020Z,23.50
2018-05-06T16:41:13.413Z,23.60
2018-05-06T16:43:43.001Z,23.50
2018-05-06T16:46:14.672Z,23.80
2018-05-06T16:48:47.870Z,24.10
2018-05-06T16:51:17.737Z,24.30
2018-05-06T16:53:47.021Z,24.50
2018-05-06T16:56:18.562Z,24.60
2018-05-06T16:58:48.153Z,24.70
2018-05-06T17:01:18.052Z,24.70
2018-05-06T17:03:47.712Z,24.80
2018-05-06T17:06:17.306Z,25.60
2018-05-06T17:08:46.864Z,25.00
2018-05-06T17:11:17.271Z,25.00
2018-05-06T17:13:47.514Z,24.80
2018-05-06T17:16:17.925Z,25.60
2018-05-06T17:18:48.815Z,25.70
2018-05-06T17:21:21.063Z,25.50
2018-05-06T17:24:04.288Z,25.40
2018-05-06T17:26:39.520Z,25.40
2018-05-06T17:29:09.989Z,25.20
2018-05-06T17:31:42.381Z,25.50
2018-05-06T17:34:16.962Z,26.20
2018-05-06T17:36:59.048Z,26.50
2018-05-06T17:39:37.876Z,26.40
2018-05-06T17:42:13.948Z,26.70
2018-05-06T17:44:52.394Z,27.10
2018-05-06T17:47:24.785Z,27.10
2018-05-06T17:49:54.207Z,27.60
2018-05-06T17:52:37.071Z,27.30
2018-05-06T17:55:28.175Z,27.50
2018-05-06T17:57:59.885Z,27.80
2018-05-06T18:00:36.485Z,28.30
2018-05-06T18:03:09.165Z,27.80
2018-05-06T18:05:39.995Z,28.00
2018-05-06T18:08:11.456Z,28.00
2018-05-06T18:10:47.220Z,28.20
2018-05-06T18:13:17.207Z,28.10
2018-05-06T18:16:21.516Z,28.30
2018-05-06T18:19:03.382Z,28.30
2018-05-06T18:24:22.388Z,28.80
2018-05-06T18:27:06.050Z,28.90
2018-05-06T18:29:40.138Z,29.20
2018-05-06T18:32:17.616Z,29.20
2018-05-06T18:34:50.819Z,29.40
2018-05-06T18:38:16.648Z,29.70
2018-05-06T18:47:46.753Z,30.10
2018-05-06T19:00:03.235Z,30.90
2018-05-06T19:08:51.105Z,30.80
2018-05-06T19:12:09.667Z,30.80
2018-05-06T19:15:16.966Z,30.80
2018-05-06T19:20:34.945Z,31.40
2018-05-06T19:23:07.520Z,31.50
2018-05-06T19:25:39.856Z,31.60
2018-05-06T19:28:13.033Z,31.90
2018-05-06T19:30:45.460Z,31.90
2018-05-06T19:33:19.634Z,31.90
2018-05-06T19:35:50.456Z,32.30
2018-05-06T19:38:20.934Z,32.30
2018-05-06T19:41:05.505Z,32.30
2018-05-06T19:43:44.632Z,32.50
2018-05-06T19:46:15.105Z,32.60
2018-05-06T19:48:45.895Z,33.40
2018-05-06T19:51:16.697Z,33.00
2018-05-06T19:53:46.742Z,33.10
2018-05-06T19:56:18.380Z,33.30
2018-05-06T19:58:48.875Z,33.80
2018-05-06T20:01:19.806Z,34.10
2018-05-06T20:03:52.767Z,34.40
2018-05-06T20:06:32.177Z,34.40
2018-05-06T20:09:15.766Z,34.60
2018-05-06T20:11:56.698Z,34.70
2018-05-06T20:14:55.549Z,35.20
2018-05-06T20:18:12.669Z,35.30
2018-05-06T20:20:47.238Z,35.50
2018-05-06T20:23:29.548Z,35.60
2018-05-06T20:26:05.613Z,35.70
2018-05-06T20:28:35.972Z,35.80
2018-05-06T20:31:05.535Z,36.00
2018-05-06T20:33:42.889Z,36.00
2018-05-06T20:36:16.818Z,36.20
2018-05-06T20:38:51.605Z,36.20
2018-05-06T20:41:28.326Z,36.40
2018-05-06T20:43:59.532Z,36.60
2018-05-06T20:46:32.280Z,37.00
2018-05-06T20:49:05.577Z,37.00
2018-05-06T20:51:48.093Z,37.20
2018-05-06T20:54:34.369Z,37.50
2018-05-06T20:57:13.939Z,37.40
2018-05-06T20:59:51.461Z,37.60
2018-05-06T21:02:24.718Z,37.90
2018-05-06T21:05:04.472Z,38.00
2018-05-06T21:07:36.967Z,38.10
2018-05-06T21:10:13.355Z,38.30
2018-05-06T21:12:53.604Z,38.50
2018-05-06T21:15:26.405Z,38.50
2018-05-06T21:18:08.938Z,38.90
2018-05-06T21:20:43.232Z,38.90
2018-05-06T21:23:19.103Z,39.20
2018-05-06T21:25:49.038Z,39.30
2018-05-06T21:28:18.559Z,39.40
2018-05-06T21:30:48.235Z,39.50
2018-05-06T21:33:19.108Z,39.70
2018-05-06T21:35:49.300Z,39.90
2018-05-06T21:38:19.447Z,40.00
2018-05-06T21:40:48.796Z,40.00
2018-05-06T21:43:18.433Z,40.30
2018-05-06T21:45:49.273Z,40.50
2018-05-06T21:48:19.518Z,41.10
2018-05-06T21:50:50.508Z,41.10
2018-05-06T21:53:21.184Z,41.60
2018-05-06T21:55:53.146Z,41.90
2018-05-06T21:58:23.323Z,42.30
2018-05-06T22:01:00.767Z,42.30
2018-05-06T22:03:32.449Z,42.50
2018-05-06T22:06:12.453Z,42.80
2018-05-06T22:08:44.220Z,43.10
2018-05-06T22:11:14.741Z,43.30
2018-05-06T22:13:44.527Z,43.70
2018-05-06T22:16:14.782Z,43.80
2018-05-06T22:18:54.319Z,44.20
2018-05-06T22:21:25.313Z,44.60
2018-05-06T22:23:55.926Z,45.20
2018-05-06T22:26:27.489Z,45.40
2018-05-06T22:28:57.031Z,45.30
2018-05-06T22:31:26.292Z,45.70
2018-05-06T22:34:02.467Z,46.30
2018-05-06T22:36:40.677Z,46.80
2018-05-06T22:39:18.685Z,46.80
2018-05-06T22:41:48.189Z,47.00
2018-05-06T22:44:17.581Z,47.20
2018-05-06T22:47:06.265Z,47.70
2018-05-06T22:49:42.419Z,47.80
2018-05-06T22:52:11.782Z,48.20
2018-05-06T22:54:40.803Z,48.70
2018-05-06T22:57:10.723Z,49.30
2018-05-06T22:59:39.941Z,49.20
2018-05-06T23:02:09.833Z,50.10
2018-05-06T23:04:40.817Z,50.00
2018-05-06T23:07:10.967Z,50.50
2018-05-06T23:09:40.377Z,51.10
2018-05-06T23:12:10.003Z,51.10
2018-05-06T23:14:39.359Z,51.20
2018-05-06T23:17:08.528Z,51.90
2018-05-06T23:19:37.715Z,52.00
2018-05-06T23:22:07.056Z,52.30
2018-05-06T23:24:38.418Z,52.70
2018-05-06T23:27:08.170Z,52.90
2018-05-06T23:29:37.314Z,53.80
2018-05-06T23:32:06.918Z,53.60
2018-05-06T23:34:35.925Z,54.00
2018-05-06T23:37:04.904Z,54.40
2018-05-06T23:39:35.169Z,54.60
2018-05-06T23:42:04.328Z,55.10
2018-05-06T23:44:33.541Z,55.60
2018-05-06T23:47:03.710Z,56.60
2018-05-06T23:49:33.674Z,56.50
2018-05-06T23:52:02.864Z,56.50
2018-05-06T23:54:31.911Z,56.80
